createdAt,value
2023-03-26T00:01:46.316Z,7.80
2023-03-26T00:04:14.289Z,7.80
2023-03-26T00:06:42.026Z,7.80
2023-03-26T00:09:12.986Z,7.80
2023-03-26T00:11:40.842Z,7.80
2023-03-26T00:14:09.334Z,7.80
2023-03-26T00:16:37.076Z,7.80
2023-03-26T00:19:06.228Z,7.80
2023-03-26T00:21:33.913Z,7.80
2023-03-26T00:24:04.822Z,7.80
2023-03-26T00:26:33.450Z,7.80
2023-03-26T00:29:03.210Z,7.90
2023-03-26T00:31:31.471Z,7.90
2023-03-26T00:34:00.792Z,7.90
2023-03-26T00:36:30.310Z,7.90
2023-03-26T00:38:58.006Z,7.90
2023-03-26T00:41:30.731Z,7.90
2023-03-26T00:44:00.268Z,7.90
2023-03-26T00:46:31.122Z,7.90
2023-03-26T00:48:59.712Z,7.90
2023-03-26T00:51:29.651Z,7.90
2023-03-26T00:53:58.367Z,7.90
2023-03-26T00:56:26.571Z,7.90
2023-03-26T00:58:54.255Z,7.90
2023-03-26T01:01:28.030Z,7.90
2023-03-26T01:04:08.266Z,7.90
2023-03-26T01:06:42.074Z,7.90
2023-03-26T01:09:16.857Z,7.90
2023-03-26T01:11:45.379Z,7.90
2023-03-26T01:14:16.865Z,7.90
2023-03-26T01:16:49.793Z,7.90
2023-03-26T01:19:25.807Z,7.90
2023-03-26T01:21:54.822Z,8.00
2023-03-26T01:24:23.839Z,8.00
2023-03-26T01:27:12.867Z,8.00
2023-03-26T01:29:45.061Z,8.00
2023-03-26T01:32:37.863Z,8.00
2023-03-26T01:35:18.861Z,8.00
2023-03-26T01:37:58.463Z,8.00
2023-03-26T01:40:38.490Z,8.00
2023-03-26T01:43:11.500Z,8.00
2023-03-26T01:45:42.881Z,8.00
2023-03-26T01:48:10.605Z,8.00
2023-03-26T01:50:38.318Z,8.00
2023-03-26T01:53:07.056Z,8.00
2023-03-26T01:55:49.639Z,8.00
2023-03-26T01:58:23.311Z,7.90
2023-03-26T02:00:56.633Z,7.90
2023-03-26T02:03:28.474Z,7.90
2023-03-26T02:06:00.910Z,7.90
2023-03-26T02:08:35.248Z,7.90
2023-03-26T02:11:11.456Z,7.90
2023-03-26T02:13:40.295Z,7.90
2023-03-26T02:16:11.689Z,7.90
2023-03-26T02:18:39.831Z,7.90
2023-03-26T02:21:12.089Z,7.90
2023-03-26T02:23:40.183Z,7.90
2023-03-26T02:26:11.324Z,7.90
2023-03-26T02:28:39.067Z,7.80
2023-03-26T02:31:09.628Z,7.90
2023-03-26T02:33:38.193Z,7.80
2023-03-26T02:36:08.318Z,7.80
2023-03-26T02:38:36.307Z,7.80
2023-03-26T02:41:04.253Z,7.80
2023-03-26T02:43:33.300Z,7.70
2023-03-26T02:46:01.111Z,7.70
2023-03-26T02:48:28.845Z,7.70
2023-03-26T02:50:56.561Z,7.60
2023-03-26T02:53:29.555Z,7.60
2023-03-26T02:55:57.657Z,7.50
2023-03-26T02:58:26.211Z,7.50
2023-03-26T03:00:55.391Z,7.40
2023-03-26T03:03:24.310Z,7.40
2023-03-26T03:05:52.455Z,7.40
2023-03-26T03:08:20.806Z,7.30
2023-03-26T03:10:57.561Z,7.30
2023-03-26T03:13:25.508Z,7.20
2023-03-26T03:15:55.001Z,7.20
2023-03-26T03:18:22.954Z,7.20
2023-03-26T03:20:50.935Z,7.10
2023-03-26T03:23:18.927Z,7.10
2023-03-26T03:25:47.094Z,7.10
2023-03-26T03:28:15.182Z,7.10
2023-03-26T03:30:42.965Z,7.00
2023-03-26T03:33:13.039Z,7.00
2023-03-26T03:35:41.451Z,7.00
2023-03-26T03:38:09.321Z,7.00
2023-03-26T03:40:37.010Z,7.00
2023-03-26T03:43:04.817Z,7.00
2023-03-26T03:45:32.759Z,7.00
2023-03-26T03:48:00.643Z,7.00
2023-03-26T03:50:29.842Z,7.00
2023-03-26T03:52:59.012Z,7.00
2023-03-26T03:55:27.526Z,7.00
2023-03-26T03:57:56.092Z,7.00
2023-03-26T04:00:24.210Z,7.00
2023-03-26T04:02:54.342Z,7.00
2023-03-26T04:05:22.275Z,7.00
2023-03-26T04:07:51.331Z,7.00
2023-03-26T04:10:19.173Z,7.00
2023-03-26T04:12:46.876Z,7.00
2023-03-26T04:15:14.594Z,7.00
2023-03-26T04:17:43.227Z,7.00
2023-03-26T04:20:15.424Z,7.00
2023-03-26T04:22:43.555Z,7.00
2023-03-26T04:25:15.349Z,7.00
2023-03-26T04:27:43.951Z,7.00
2023-03-26T04:30:15.532Z,7.00
2023-03-26T04:32:44.522Z,7.00
2023-03-26T04:35:16.557Z,7.00
2023-03-26T04:37:45.881Z,7.00
2023-03-26T04:40:17.487Z,7.00
2023-03-26T04:42:46.500Z,7.00
2023-03-26T04:45:15.981Z,7.00
2023-03-26T04:47:46.230Z,7.00
2023-03-26T04:50:14.124Z,7.00
2023-03-26T04:52:43.870Z,7.00
2023-03-26T04:55:22.043Z,7.00
2023-03-26T04:57:54.057Z,7.00
2023-03-26T05:00:22.073Z,7.00
2023-03-26T05:02:50.796Z,7.00
2023-03-26T05:05:19.031Z,7.00
2023-03-26T05:07:46.771Z,7.00
2023-03-26T05:10:17.252Z,7.00
2023-03-26T05:12:44.992Z,7.00
2023-03-26T05:15:13.863Z,7.00
2023-03-26T05:17:42.265Z,7.00
2023-03-26T05:20:18.209Z,7.00
2023-03-26T05:22:45.940Z,7.00
2023-03-26T05:25:13.696Z,7.00
2023-03-26T05:27:42.744Z,7.00
2023-03-26T05:30:14.941Z,7.00
2023-03-26T05:32:42.872Z,7.00
2023-03-26T05:35:11.577Z,7.00
2023-03-26T05:37:39.937Z,7.00
2023-03-26T05:40:11.940Z,7.00
2023-03-26T05:42:40.428Z,7.00
2023-03-26T05:45:11.992Z,7.00
2023-03-26T05:47:39.938Z,7.00
2023-03-26T05:50:09.227Z,7.00
2023-03-26T05:52:37.110Z,7.00
2023-03-26T05:55:05.333Z,7.00
2023-03-26T05:57:35.258Z,7.10
2023-03-26T06:00:04.521Z,7.10
2023-03-26T06:02:33.630Z,7.10
2023-03-26T06:05:02.773Z,7.10
2023-03-26T06:07:31.094Z,7.10
2023-03-26T06:09:58.815Z,7.10
2023-03-26T06:12:26.730Z,7.10
2023-03-26T06:14:54.500Z,7.10
2023-03-26T06:17:22.303Z,7.10
2023-03-26T06:19:51.360Z,7.10
2023-03-26T06:22:19.139Z,7.10
2023-03-26T06:24:46.882Z,7.10
2023-03-26T06:27:14.628Z,7.10
2023-03-26T06:29:42.330Z,7.10
2023-03-26T06:32:19.626Z,7.10
2023-03-26T06:34:47.976Z,7.10
2023-03-26T06:37:17.136Z,7.10
2023-03-26T06:39:44.894Z,7.10
2023-03-26T06:42:12.639Z,7.10
2023-03-26T06:44:40.371Z,7.10
2023-03-26T06:47:08.116Z,7.10
2023-03-26T06:49:38.027Z,7.10
2023-03-26T06:52:06.388Z,7.10
2023-03-26T06:54:35.437Z,7.10
2023-03-26T06:57:03.306Z,7.10
2023-03-26T06:59:31.481Z,7.10
2023-03-26T07:01:59.217Z,7.10
2023-03-26T07:04:27.017Z,7.10
2023-03-26T07:06:54.861Z,7.20
2023-03-26T07:09:22.733Z,7.20
2023-03-26T07:11:51.796Z,7.20
2023-03-26T07:14:19.509Z,7.20
2023-03-26T07:16:47.289Z,7.20
2023-03-26T07:19:15.038Z,7.20
2023-03-26T07:21:43.248Z,7.20
2023-03-26T07:24:13.730Z,7.30
2023-03-26T07:26:49.938Z,7.30
2023-03-26T07:29:27.198Z,7.30
2023-03-26T07:32:00.855Z,7.30
2023-03-26T07:34:41.989Z,7.30
2023-03-26T07:37:17.647Z,7.30
2023-03-26T07:39:50.650Z,7.30
2023-03-26T07:42:32.508Z,7.30
2023-03-26T07:45:09.049Z,7.30
2023-03-26T07:47:37.440Z,7.30
2023-03-26T07:50:06.584Z,7.40
2023-03-26T07:52:34.929Z,7.40
2023-03-26T07:55:03.427Z,7.40
2023-03-26T07:57:44.172Z,7.40
2023-03-26T08:00:21.979Z,7.40
2023-03-26T08:03:26.894Z,7.40
2023-03-26T08:06:06.299Z,7.40
2023-03-26T08:08:43.189Z,7.40
2023-03-26T08:11:23.095Z,7.40
2023-03-26T08:14:01.662Z,7.40
2023-03-26T08:16:37.237Z,7.40
2023-03-26T08:19:16.556Z,7.40
2023-03-26T08:21:48.435Z,7.40
2023-03-26T08:24:23.699Z,7.40
2023-03-26T08:26:58.310Z,7.40
2023-03-26T08:29:32.692Z,7.40
2023-03-26T08:32:04.713Z,7.30
2023-03-26T08:34:32.429Z,7.30
2023-03-26T08:37:01.480Z,7.30
2023-03-26T08:39:29.207Z,7.30
2023-03-26T08:42:29.520Z,7.30
2023-03-26T08:45:36.660Z,7.40
2023-03-26T08:49:01.403Z,7.40
2023-03-26T08:51:57.682Z,7.40
2023-03-26T08:55:04.832Z,7.40
2023-03-26T08:57:57.690Z,7.40
2023-03-26T09:00:42.476Z,7.40
2023-03-26T09:03:48.458Z,7.40
2023-03-26T09:07:06.752Z,7.40
2023-03-26T09:09:53.782Z,7.40
2023-03-26T09:12:44.790Z,7.40
2023-03-26T09:15:51.926Z,7.40
2023-03-26T09:18:59.333Z,7.40
2023-03-26T09:22:00.780Z,7.40
2023-03-26T09:24:45.140Z,7.40
2023-03-26T09:27:37.437Z,7.40
2023-03-26T09:30:47.332Z,7.40
2023-03-26T09:33:42.624Z,7.40
2023-03-26T09:36:22.565Z,7.40
2023-03-26T09:38:56.514Z,7.40
2023-03-26T09:41:37.136Z,7.30
2023-03-26T09:44:35.362Z,7.30
2023-03-26T09:47:32.187Z,7.30
2023-03-26T09:50:12.682Z,7.30
2023-03-26T09:52:54.205Z,7.30
2023-03-26T09:55:44.173Z,7.30
2023-03-26T09:58:43.854Z,7.30
2023-03-26T10:01:18.355Z,7.30
2023-03-26T10:04:11.671Z,7.20
2023-03-26T10:06:52.844Z,7.20
2023-03-26T10:09:40.759Z,7.30
2023-03-26T10:12:22.368Z,7.30
2023-03-26T10:14:59.892Z,7.30
2023-03-26T10:17:47.366Z,7.30
2023-03-26T10:20:35.267Z,7.30
2023-03-26T10:23:20.297Z,7.30
2023-03-26T10:26:03.411Z,7.30
2023-03-26T10:28:57.206Z,7.30
2023-03-26T10:31:36.154Z,7.20
2023-03-26T10:34:28.524Z,7.20
2023-03-26T10:37:07.566Z,7.20
2023-03-26T10:40:06.469Z,7.20
2023-03-26T10:43:00.916Z,7.10
2023-03-26T10:45:41.843Z,7.10
2023-03-26T10:48:28.669Z,7.00
2023-03-26T10:51:20.193Z,7.00
2023-03-26T10:53:51.878Z,7.00
2023-03-26T10:56:26.676Z,7.00
2023-03-26T10:58:56.815Z,7.00
2023-03-26T11:01:41.434Z,7.00
2023-03-26T11:04:20.786Z,7.00
2023-03-26T11:06:56.182Z,7.00
2023-03-26T11:09:34.659Z,7.00
2023-03-26T11:12:25.454Z,7.00
2023-03-26T11:15:03.139Z,7.00
2023-03-26T11:17:45.972Z,7.00
2023-03-26T11:20:21.145Z,7.00
2023-03-26T11:23:00.279Z,7.00
2023-03-26T11:25:41.228Z,7.00
2023-03-26T11:28:19.348Z,7.00
2023-03-26T11:30:54.259Z,7.00
2023-03-26T11:33:27.711Z,7.00
2023-03-26T11:36:04.402Z,7.00
2023-03-26T11:38:37.606Z,7.00
2023-03-26T11:41:12.389Z,7.00
2023-03-26T11:43:40.326Z,7.00
2023-03-26T11:46:12.533Z,7.00
2023-03-26T11:48:44.578Z,7.10
2023-03-26T11:51:17.448Z,7.10
2023-03-26T11:53:46.687Z,7.10
2023-03-26T11:56:19.889Z,7.10
2023-03-26T11:58:54.557Z,7.10
2023-03-26T12:01:30.196Z,7.20
2023-03-26T12:04:06.989Z,7.20
2023-03-26T12:06:34.778Z,7.20
2023-03-26T12:09:03.228Z,7.30
2023-03-26T12:11:35.388Z,7.30
2023-03-26T12:14:05.785Z,7.30
2023-03-26T12:16:36.209Z,7.40
2023-03-26T12:19:08.096Z,7.40
2023-03-26T12:21:46.789Z,7.50
2023-03-26T12:24:27.960Z,7.50
2023-03-26T12:27:01.850Z,7.60
2023-03-26T12:29:34.286Z,7.60
2023-03-26T12:32:08.169Z,7.70
2023-03-26T12:34:39.312Z,7.70
2023-03-26T12:37:29.155Z,7.70
2023-03-26T12:40:14.280Z,7.80
2023-03-26T12:44:52.751Z,7.80
2023-03-26T12:45:44.377Z,7.90
2023-03-26T12:48:15.713Z,7.90
2023-03-26T12:51:00.868Z,8.00
2023-03-26T12:53:47.127Z,8.10
2023-03-26T12:56:22.465Z,8.10
2023-03-26T12:59:25.800Z,8.10
2023-03-26T13:02:01.108Z,8.10
2023-03-26T13:05:05.138Z,8.10
2023-03-26T13:07:50.651Z,8.10
2023-03-26T13:10:43.305Z,8.10
2023-03-26T13:13:33.549Z,8.10
2023-03-26T13:16:05.604Z,8.20
2023-03-26T13:18:43.434Z,8.30
2023-03-26T13:21:16.522Z,8.30
2023-03-26T13:23:51.741Z,8.40
2023-03-26T13:26:31.322Z,8.50
2023-03-26T13:29:08.079Z,8.60
2023-03-26T13:31:43.231Z,8.70
2023-03-26T13:34:19.175Z,8.80
2023-03-26T13:36:59.447Z,8.80
2023-03-26T13:39:36.015Z,8.90
2023-03-26T13:42:22.826Z,8.90
2023-03-26T13:45:05.697Z,9.00
2023-03-26T13:47:39.103Z,9.00
2023-03-26T13:50:16.392Z,9.00
2023-03-26T13:52:51.476Z,8.90
2023-03-26T13:55:30.403Z,8.90
2023-03-26T13:58:04.899Z,8.80
2023-03-26T14:00:47.646Z,8.90
2023-03-26T14:03:26.532Z,8.90
2023-03-26T14:05:58.589Z,8.90
2023-03-26T14:08:32.839Z,9.00
2023-03-26T14:11:09.891Z,9.00
2023-03-26T14:13:42.839Z,9.00
2023-03-26T14:16:15.625Z,9.00
2023-03-26T14:18:50.174Z,9.00
2023-03-26T14:21:36.081Z,9.00
2023-03-26T14:24:15.408Z,9.00
2023-03-26T14:27:03.209Z,9.00
2023-03-26T14:30:01.256Z,9.00
2023-03-26T14:32:44.778Z,9.00
2023-03-26T14:35:33.520Z,8.90
2023-03-26T14:38:28.375Z,8.90
2023-03-26T14:40:59.062Z,9.00
2023-03-26T14:44:03.546Z,9.00
2023-03-26T14:46:43.048Z,8.90
2023-03-26T14:49:26.421Z,9.00
2023-03-26T14:52:06.762Z,8.90
2023-03-26T14:54:41.005Z,8.90
2023-03-26T14:57:40.845Z,8.80
2023-03-26T15:00:44.244Z,8.80
2023-03-26T15:04:06.685Z,8.70
2023-03-26T15:07:19.739Z,8.60
2023-03-26T15:10:16.794Z,8.50
2023-03-26T15:13:04.036Z,8.50
2023-03-26T15:16:10.371Z,8.50
2023-03-26T15:19:18.638Z,8.40
2023-03-26T15:22:26.133Z,8.40
2023-03-26T15:25:34.477Z,8.30
2023-03-26T15:28:34.749Z,8.30
2023-03-26T15:31:37.058Z,8.30
2023-03-26T15:34:38.423Z,8.30
2023-03-26T15:37:35.167Z,8.40
2023-03-26T15:40:33.581Z,8.40
2023-03-26T15:43:09.363Z,8.50
2023-03-26T15:45:39.214Z,8.50
2023-03-26T15:48:31.388Z,8.50
2023-03-26T15:51:15.244Z,8.40
2023-03-26T15:53:51.464Z,8.40
2023-03-26T15:56:32.717Z,8.40
2023-03-26T15:59:08.899Z,8.40
2023-03-26T16:01:50.762Z,8.40
2023-03-26T16:04:30.137Z,8.30
2023-03-26T16:07:03.423Z,8.30
2023-03-26T16:09:42.042Z,8.20
2023-03-26T16:12:38.512Z,8.20
2023-03-26T16:15:31.961Z,8.20
2023-03-26T16:18:31.149Z,8.20
2023-03-26T16:21:40.048Z,8.20
2023-03-26T16:24:24.279Z,8.20
2023-03-26T16:27:07.776Z,8.10
2023-03-26T16:30:06.983Z,8.10
2023-03-26T16:32:37.200Z,8.10
2023-03-26T16:35:38.040Z,8.10
2023-03-26T16:38:07.252Z,8.00
2023-03-26T16:40:37.028Z,8.00
2023-03-26T16:43:27.601Z,7.90
2023-03-26T16:46:03.602Z,7.90
2023-03-26T16:48:38.423Z,7.90
2023-03-26T16:51:14.957Z,7.90
2023-03-26T16:53:51.822Z,7.90
2023-03-26T16:56:31.804Z,7.80
2023-03-26T16:59:07.476Z,7.80
2023-03-26T17:01:42.817Z,7.80
2023-03-26T17:04:17.175Z,7.70
2023-03-26T17:07:13.925Z,7.70
2023-03-26T17:10:01.020Z,7.60
2023-03-26T17:12:37.672Z,7.60
2023-03-26T17:15:14.293Z,7.60
2023-03-26T17:17:54.335Z,7.60
2023-03-26T17:20:33.828Z,7.50
2023-03-26T17:23:23.769Z,7.50
2023-03-26T17:26:02.034Z,7.50
2023-03-26T17:28:47.399Z,7.50
2023-03-26T17:31:24.043Z,7.40
2023-03-26T17:33:53.641Z,7.40
2023-03-26T17:36:31.668Z,7.40
2023-03-26T17:39:35.383Z,7.30
2023-03-26T17:42:18.661Z,7.30
2023-03-26T17:44:51.220Z,7.30
2023-03-26T17:47:32.403Z,7.20
2023-03-26T17:50:04.156Z,7.20
2023-03-26T17:52:47.870Z,7.20
2023-03-26T17:55:19.341Z,7.20
2023-03-26T17:57:51.162Z,7.10
2023-03-26T18:00:23.449Z,7.10
2023-03-26T18:02:57.168Z,7.10
2023-03-26T18:05:29.195Z,7.00
2023-03-26T18:08:40.656Z,7.00
2023-03-26T18:11:37.870Z,6.90
2023-03-26T18:14:42.233Z,6.90
2023-03-26T18:17:10.444Z,6.90
2023-03-26T18:19:48.871Z,6.90
2023-03-26T18:22:21.735Z,6.80
2023-03-26T18:24:51.725Z,6.80
2023-03-26T18:27:21.693Z,6.80
2023-03-26T18:30:02.516Z,6.80
2023-03-26T18:32:33.380Z,6.70
2023-03-26T18:35:04.353Z,6.70
2023-03-26T18:37:34.368Z,6.70
2023-03-26T18:40:11.116Z,6.70
2023-03-26T18:42:40.144Z,6.70
2023-03-26T18:45:16.780Z,6.70
2023-03-26T18:47:45.129Z,6.60
2023-03-26T18:50:17.734Z,6.60
2023-03-26T18:52:46.022Z,6.60
2023-03-26T18:55:16.004Z,6.60
2023-03-26T18:57:44.225Z,6.60
2023-03-26T19:00:20.581Z,6.60
2023-03-26T19:02:50.715Z,6.50
2023-03-26T19:05:20.008Z,6.50
2023-03-26T19:07:48.889Z,6.40
2023-03-26T19:10:21.309Z,6.40
2023-03-26T19:12:57.166Z,6.40
2023-03-26T19:15:26.584Z,6.40
2023-03-26T19:17:59.722Z,6.40
2023-03-26T19:20:29.832Z,6.30
2023-03-26T19:22:58.657Z,6.30
2023-03-26T19:25:32.415Z,6.30
2023-03-26T19:28:00.438Z,6.20
2023-03-26T19:30:32.328Z,6.20
2023-03-26T19:33:12.878Z,6.20
2023-03-26T19:35:43.254Z,6.20
2023-03-26T19:38:25.493Z,6.20
2023-03-26T19:40:56.603Z,6.20
2023-03-26T19:43:25.555Z,6.10
2023-03-26T19:46:00.469Z,6.10
2023-03-26T19:48:46.764Z,6.10
2023-03-26T19:51:20.978Z,6.10
2023-03-26T19:53:52.880Z,6.00
2023-03-26T19:56:23.163Z,6.00
2023-03-26T19:58:51.147Z,6.00
2023-03-26T20:01:20.981Z,6.00
2023-03-26T20:03:51.424Z,6.00
2023-03-26T20:06:30.754Z,5.90
2023-03-26T20:08:58.786Z,5.90
2023-03-26T20:11:33.288Z,5.80
2023-03-26T20:14:02.056Z,5.80
2023-03-26T20:16:31.863Z,5.80
2023-03-26T20:19:02.255Z,5.80
2023-03-26T20:21:32.132Z,5.80
2023-03-26T20:24:00.519Z,5.80
2023-03-26T20:26:29.559Z,5.80
2023-03-26T20:28:57.342Z,5.80
2023-03-26T20:31:28.095Z,5.80
2023-03-26T20:33:56.299Z,5.80
2023-03-26T20:36:33.229Z,5.70
2023-03-26T20:39:02.924Z,5.70
2023-03-26T20:41:32.575Z,5.70
2023-03-26T20:44:00.312Z,5.70
2023-03-26T20:46:30.701Z,5.70
2023-03-26T20:48:59.950Z,5.70
2023-03-26T20:51:29.053Z,5.70
2023-03-26T20:53:57.408Z,5.60
2023-03-26T20:56:25.138Z,5.60
2023-03-26T20:59:09.794Z,5.60
2023-03-26T21:01:38.836Z,5.50
2023-03-26T21:04:06.980Z,5.50
2023-03-26T21:06:34.831Z,5.50
2023-03-26T21:09:03.940Z,5.50
2023-03-26T21:11:44.288Z,5.50
2023-03-26T21:14:19.520Z,5.50
2023-03-26T21:16:48.026Z,5.40
2023-03-26T21:19:16.715Z,5.40
2023-03-26T21:21:52.984Z,5.40
2023-03-26T21:24:32.948Z,5.40
2023-03-26T21:27:08.334Z,5.30
2023-03-26T21:29:38.127Z,5.30
2023-03-26T21:32:06.397Z,5.30
2023-03-26T21:34:35.092Z,5.20
2023-03-26T21:37:04.545Z,5.20
2023-03-26T21:39:32.714Z,5.20
2023-03-26T21:42:05.180Z,5.20
2023-03-26T21:44:34.465Z,5.20
2023-03-26T21:47:04.247Z,5.20
2023-03-26T21:49:32.488Z,5.10
2023-03-26T21:52:00.718Z,5.10
2023-03-26T21:54:30.769Z,5.10
2023-03-26T21:57:19.605Z,5.00
2023-03-26T21:59:54.683Z,5.00
2023-03-26T22:02:30.895Z,5.00
2023-03-26T22:05:04.956Z,4.90
2023-03-26T22:07:40.378Z,4.90
2023-03-26T22:10:08.692Z,4.80
2023-03-26T22:12:36.480Z,4.80
2023-03-26T22:15:04.633Z,4.70
2023-03-26T22:17:33.740Z,4.70
2023-03-26T22:20:01.824Z,4.70
2023-03-26T22:22:29.910Z,4.60
2023-03-26T22:24:57.652Z,4.60
2023-03-26T22:27:25.351Z,4.50
2023-03-26T22:29:53.056Z,4.50
2023-03-26T22:32:21.105Z,4.50
2023-03-26T22:34:52.008Z,4.50
2023-03-26T22:37:19.747Z,4.40
2023-03-26T22:39:47.466Z,4.30
2023-03-26T22:42:15.698Z,4.30
2023-03-26T22:44:43.492Z,4.30
2023-03-26T22:47:13.346Z,4.20
2023-03-26T22:49:41.524Z,4.20
2023-03-26T22:52:10.952Z,4.10
2023-03-26T22:54:38.661Z,4.00
2023-03-26T22:57:06.671Z,4.00
2023-03-26T22:59:34.611Z,3.80
2023-03-26T23:02:02.354Z,3.80
2023-03-26T23:04:32.223Z,3.70
2023-03-26T23:07:00.554Z,3.60
2023-03-26T23:09:29.676Z,3.60
2023-03-26T23:11:57.671Z,3.60
2023-03-26T23:14:25.379Z,3.60
2023-03-26T23:16:53.204Z,3.60
2023-03-26T23:19:21.036Z,3.50
2023-03-26T23:21:48.821Z,3.50
2023-03-26T23:24:17.219Z,3.50
2023-03-26T23:26:50.582Z,3.40
2023-03-26T23:29:18.942Z,3.40
2023-03-26T23:31:46.742Z,3.30
2023-03-26T23:34:16.229Z,3.30
2023-03-26T23:36:44.691Z,3.30
2023-03-26T23:39:12.817Z,3.20
2023-03-26T23:41:40.520Z,3.20
2023-03-26T23:44:13.414Z,3.10
2023-03-26T23:46:42.576Z,3.10
2023-03-26T23:49:10.547Z,3.10
2023-03-26T23:51:38.333Z,3.10
2023-03-26T23:54:06.657Z,3.00
2023-03-26T23:56:34.458Z,2.90
2023-03-26T23:59:03.458Z,2.90
